createdAt,value
2023-01-02T00:01:43.591Z,12.27
2023-01-02T00:04:10.939Z,11.77
2023-01-02T00:06:38.672Z,12.68
2023-01-02T00:09:07.007Z,11.73
2023-01-02T00:11:34.262Z,11.70
2023-01-02T00:14:01.644Z,10.98
2023-01-02T00:16:29.081Z,11.77
2023-01-02T00:18:56.411Z,12.52
2023-01-02T00:21:23.703Z,10.93
2023-01-02T00:23:51.029Z,10.45
2023-01-02T00:26:18.422Z,12.20
2023-01-02T00:28:45.646Z,11.60
2023-01-02T00:31:13.793Z,9.65
2023-01-02T00:33:41.212Z,11.52
2023-01-02T00:36:09.321Z,12.55
2023-01-02T00:38:38.471Z,14.25
2023-01-02T00:41:06.273Z,12.75
2023-01-02T00:43:33.480Z,11.77
2023-01-02T00:46:02.629Z,13.52
2023-01-02T00:48:33.474Z,13.80
2023-01-02T00:51:00.698Z,14.02
2023-01-02T00:53:27.936Z,14.27
2023-01-02T00:55:55.191Z,13.38
2023-01-02T00:58:22.499Z,14.20
2023-01-02T01:00:51.196Z,14.32
2023-01-02T01:03:18.649Z,13.65
2023-01-02T01:05:45.886Z,13.40
2023-01-02T01:08:13.225Z,13.45
2023-01-02T01:10:40.512Z,13.82
2023-01-02T01:13:07.932Z,12.82
2023-01-02T01:15:36.340Z,15.02
2023-01-02T01:18:03.672Z,13.13
2023-01-02T01:20:31.159Z,14.88
2023-01-02T01:22:58.503Z,12.73
2023-01-02T01:25:25.761Z,13.30
2023-01-02T01:27:54.431Z,14.25
2023-01-02T01:30:21.713Z,12.18
2023-01-02T01:32:49.102Z,12.75
2023-01-02T01:35:16.345Z,12.77
2023-01-02T01:37:43.792Z,12.43
2023-01-02T01:40:11.331Z,13.30
2023-01-02T01:42:38.655Z,12.60
2023-01-02T01:45:13.016Z,12.75
2023-01-02T01:47:46.073Z,12.82
2023-01-02T01:50:26.173Z,11.38
2023-01-02T01:52:53.641Z,11.50
2023-01-02T01:55:20.975Z,11.55
2023-01-02T01:57:50.827Z,11.13
2023-01-02T02:00:18.255Z,12.30
2023-01-02T02:02:47.506Z,12.88
2023-01-02T02:05:16.467Z,12.45
2023-01-02T02:07:46.408Z,11.70
2023-01-02T02:10:13.894Z,12.30
2023-01-02T02:12:41.429Z,12.35
2023-01-02T02:15:10.721Z,12.55
2023-01-02T02:17:47.209Z,12.82
2023-01-02T02:20:33.085Z,13.65
2023-01-02T02:23:03.420Z,13.40
2023-01-02T02:25:43.754Z,15.18
2023-01-02T02:28:24.723Z,14.05
2023-01-02T02:30:57.154Z,13.75
2023-01-02T02:33:27.565Z,14.75
2023-01-02T02:35:54.742Z,14.90
2023-01-02T02:38:38.190Z,15.77
2023-01-02T02:41:05.404Z,14.05
2023-01-02T02:43:47.777Z,14.18
2023-01-02T02:46:20.260Z,15.38
2023-01-02T02:48:50.318Z,14.48
2023-01-02T02:51:17.507Z,15.25
2023-01-02T02:53:49.944Z,15.75
2023-01-02T02:56:17.536Z,15.95
2023-01-02T02:58:45.726Z,15.00
2023-01-02T03:01:15.750Z,15.18
2023-01-02T03:03:43.787Z,16.75
2023-01-02T03:06:17.341Z,15.38
2023-01-02T03:09:03.699Z,16.60
2023-01-02T03:11:39.905Z,16.20
2023-01-02T03:14:17.513Z,15.75
2023-01-02T03:16:47.359Z,16.50
2023-01-02T03:19:14.742Z,16.42
2023-01-02T03:21:45.457Z,15.45
2023-01-02T03:24:15.042Z,15.80
2023-01-02T03:26:44.629Z,16.42
2023-01-02T03:29:20.589Z,16.10
2023-01-02T03:31:52.405Z,17.48
2023-01-02T03:34:22.260Z,15.80
2023-01-02T03:36:52.828Z,15.07
2023-01-02T03:39:21.669Z,16.05
2023-01-02T03:41:53.997Z,15.00
2023-01-02T03:44:23.364Z,15.18
2023-01-02T03:49:20.913Z,13.40
2023-01-02T03:51:48.273Z,13.20
2023-01-02T03:54:16.310Z,13.15
2023-01-02T03:57:01.391Z,11.68
2023-01-02T03:59:46.790Z,13.30
2023-01-02T04:02:19.872Z,12.77
2023-01-02T04:04:54.463Z,13.68
2023-01-02T04:07:33.789Z,14.10
2023-01-02T04:12:30.559Z,13.48
2023-01-02T04:15:03.029Z,13.48
2023-01-02T04:17:32.424Z,14.32
2023-01-02T04:22:32.681Z,14.25
2023-01-02T04:25:08.612Z,15.35
2023-01-02T04:27:37.991Z,15.93
2023-01-02T04:32:34.935Z,15.15
2023-01-02T04:35:05.896Z,16.23
2023-01-02T04:37:37.412Z,15.75
2023-01-02T04:40:11.617Z,15.27
2023-01-02T04:42:38.877Z,15.25
2023-01-02T04:45:06.371Z,15.50
2023-01-02T04:47:33.706Z,15.57
2023-01-02T04:50:00.958Z,16.13
2023-01-02T04:52:35.081Z,16.20
2023-01-02T04:55:04.538Z,18.73
2023-01-02T04:57:32.265Z,18.52
2023-01-02T04:59:59.557Z,11.85
2023-01-02T05:02:26.866Z,9.65
2023-01-02T05:04:54.223Z,9.55
2023-01-02T05:07:21.544Z,8.10
2023-01-02T05:09:48.792Z,8.40
2023-01-02T05:12:16.907Z,7.72
2023-01-02T05:14:44.192Z,5.60
2023-01-02T05:17:11.379Z,5.20
2023-01-02T05:19:38.805Z,6.05
2023-01-02T05:22:24.612Z,4.45
2023-01-02T05:24:51.877Z,4.22
2023-01-02T05:27:19.090Z,4.60
2023-01-02T05:29:46.398Z,3.80
2023-01-02T05:32:13.701Z,3.63
2023-01-02T05:34:41.019Z,3.63
2023-01-02T05:37:08.263Z,4.35
2023-01-02T05:39:35.648Z,3.80
2023-01-02T05:42:02.826Z,3.50
2023-01-02T05:44:30.761Z,3.97
2023-01-02T05:46:58.186Z,5.28
2023-01-02T05:49:25.486Z,4.55
2023-01-02T05:51:52.785Z,4.70
2023-01-02T05:54:19.999Z,4.00
2023-01-02T05:56:47.451Z,3.97
2023-01-02T05:59:15.393Z,3.30
2023-01-02T06:01:43.049Z,3.40
2023-01-02T06:04:16.059Z,3.08
2023-01-02T06:06:47.196Z,2.80
2023-01-02T06:09:15.193Z,3.35
2023-01-02T06:11:42.813Z,3.47
2023-01-02T06:14:10.726Z,3.15
2023-01-02T06:16:38.716Z,3.35
2023-01-02T06:19:06.376Z,2.30
2023-01-02T06:21:34.233Z,2.65
2023-01-02T06:24:01.583Z,3.63
2023-01-02T06:26:34.586Z,2.50
2023-01-02T06:29:02.702Z,2.65
2023-01-02T06:31:30.293Z,2.72
2023-01-02T06:33:58.567Z,2.72
2023-01-02T06:36:26.453Z,3.65
2023-01-02T06:38:53.716Z,4.07
2023-01-02T06:41:20.945Z,3.17
2023-01-02T06:43:49.831Z,2.90
2023-01-02T06:46:18.394Z,3.75
2023-01-02T06:48:45.699Z,2.45
2023-01-02T06:51:14.342Z,2.00
2023-01-02T06:53:42.258Z,1.80
2023-01-02T06:56:10.135Z,2.63
2023-01-02T06:58:38.026Z,2.67
2023-01-02T07:01:05.242Z,2.60
2023-01-02T07:03:32.593Z,2.00
2023-01-02T07:06:10.127Z,1.70
2023-01-02T07:08:37.353Z,2.00
2023-01-02T07:11:15.275Z,1.73
2023-01-02T07:13:43.610Z,2.45
2023-01-02T07:16:12.300Z,1.80
2023-01-02T07:18:39.942Z,1.90
2023-01-02T07:21:07.923Z,2.50
2023-01-02T07:23:35.514Z,2.08
2023-01-02T07:26:04.297Z,2.22
2023-01-02T07:28:31.758Z,3.33
2023-01-02T07:30:59.990Z,2.08
2023-01-02T07:33:28.611Z,2.85
2023-01-02T07:35:59.466Z,2.90
2023-01-02T07:38:27.048Z,4.30
2023-01-02T07:40:54.708Z,4.20
2023-01-02T07:43:22.429Z,2.90
2023-01-02T07:45:50.845Z,2.13
2023-01-02T07:48:18.584Z,2.40
2023-01-02T07:50:46.188Z,1.50
2023-01-02T07:53:13.549Z,1.80
2023-01-02T07:55:41.328Z,1.75
2023-01-02T07:58:08.581Z,1.83
2023-01-02T08:00:36.567Z,1.13
2023-01-02T08:03:05.246Z,2.05
2023-01-02T08:05:35.361Z,2.42
2023-01-02T08:08:04.672Z,1.48
2023-01-02T08:10:33.115Z,1.63
2023-01-02T08:13:00.741Z,1.23
2023-01-02T08:15:28.187Z,2.20
2023-01-02T08:17:57.399Z,1.88
2023-01-02T08:20:25.213Z,3.85
2023-01-02T08:22:52.579Z,3.67
2023-01-02T08:25:19.864Z,3.60
2023-01-02T08:27:47.278Z,3.47
2023-01-02T08:30:14.524Z,3.00
2023-01-02T08:32:43.280Z,3.20
2023-01-02T08:35:10.599Z,3.45
2023-01-02T08:37:38.126Z,2.63
2023-01-02T08:40:06.121Z,4.72
2023-01-02T08:42:33.677Z,2.55
2023-01-02T08:45:01.134Z,2.65
2023-01-02T08:47:28.855Z,2.40
2023-01-02T08:49:56.665Z,2.40
2023-01-02T08:52:23.857Z,2.33
2023-01-02T08:54:51.309Z,2.65
2023-01-02T08:57:18.768Z,2.97
2023-01-02T08:59:46.044Z,2.30
2023-01-02T09:02:15.010Z,1.77
2023-01-02T09:04:42.476Z,1.73
2023-01-02T09:07:09.990Z,1.60
2023-01-02T09:09:38.249Z,1.40
2023-01-02T09:12:05.948Z,2.42
2023-01-02T09:14:33.266Z,1.67
2023-01-02T09:17:00.618Z,1.38
2023-01-02T09:19:27.941Z,1.30
2023-01-02T09:21:55.305Z,1.52
2023-01-02T09:24:22.665Z,1.83
2023-01-02T09:26:49.976Z,1.02
2023-01-02T09:29:17.294Z,2.00
2023-01-02T09:31:44.641Z,1.52
2023-01-02T09:34:12.502Z,1.67
2023-01-02T09:36:39.885Z,1.23
2023-01-02T09:39:08.960Z,2.38
2023-01-02T09:41:40.291Z,1.80
2023-01-02T09:44:07.542Z,1.60
2023-01-02T09:46:49.944Z,2.38
2023-01-02T09:49:25.071Z,2.00
2023-01-02T09:51:52.681Z,1.60
2023-01-02T09:54:28.042Z,1.98
2023-01-02T09:57:10.530Z,1.88
2023-01-02T09:59:50.248Z,2.25
2023-01-02T10:02:24.833Z,2.30
2023-01-02T10:05:11.244Z,2.17
2023-01-02T10:07:49.321Z,2.10
2023-01-02T10:10:23.189Z,2.00
2023-01-02T10:13:09.589Z,1.90
2023-01-02T10:15:38.832Z,2.70
2023-01-02T10:20:36.569Z,1.75
2023-01-02T10:23:07.653Z,1.60
2023-01-02T10:25:40.883Z,2.15
2023-01-02T10:28:17.369Z,2.22
2023-01-02T10:30:53.102Z,1.70
2023-01-02T10:33:24.105Z,3.05
2023-01-02T10:35:56.106Z,2.20
2023-01-02T10:38:23.603Z,2.60
2023-01-02T10:40:51.898Z,3.58
2023-01-02T10:43:19.358Z,3.17
2023-01-02T10:45:46.704Z,2.97
2023-01-02T10:48:14.142Z,2.80
2023-01-02T10:50:49.506Z,4.00
2023-01-02T10:53:21.016Z,3.03
2023-01-02T10:55:48.754Z,3.00
2023-01-02T10:58:26.195Z,3.25
2023-01-02T11:01:04.765Z,4.68
2023-01-02T11:03:33.190Z,4.20
2023-01-02T11:06:23.187Z,4.13
2023-01-02T11:08:59.015Z,4.88
2023-01-02T11:11:27.584Z,3.78
2023-01-02T11:14:05.659Z,3.42
2023-01-02T11:16:37.615Z,3.97
2023-01-02T11:19:07.461Z,3.08
2023-01-02T11:21:35.936Z,2.85
2023-01-02T11:24:05.144Z,2.85
2023-01-02T11:26:40.211Z,2.88
2023-01-02T11:29:09.632Z,3.20
2023-01-02T11:31:57.953Z,2.80
2023-01-02T11:34:34.239Z,2.85
2023-01-02T11:37:15.017Z,4.03
2023-01-02T11:39:44.132Z,4.43
2023-01-02T11:42:45.092Z,3.20
2023-01-02T11:45:16.950Z,2.40
2023-01-02T11:47:51.952Z,3.67
2023-01-02T11:50:22.456Z,2.05
2023-01-02T11:52:53.607Z,2.63
2023-01-02T11:55:41.298Z,2.10
2023-01-02T11:58:27.415Z,1.88
2023-01-02T12:01:14.993Z,2.00
2023-01-02T12:03:42.587Z,2.90
2023-01-02T12:06:18.823Z,2.60
2023-01-02T12:09:04.869Z,2.13
2023-01-02T12:11:35.356Z,2.42
2023-01-02T12:14:18.179Z,2.85
2023-01-02T12:17:08.852Z,2.10
2023-01-02T12:19:55.169Z,2.40
2023-01-02T12:22:44.627Z,2.38
2023-01-02T12:25:31.404Z,2.92
2023-01-02T12:28:17.525Z,4.45
2023-01-02T12:31:02.998Z,2.13
2023-01-02T12:33:39.425Z,2.55
2023-01-02T12:36:20.865Z,2.40
2023-01-02T12:38:48.143Z,2.67
2023-01-02T12:41:15.364Z,1.67
2023-01-02T12:43:51.992Z,1.85
2023-01-02T12:46:22.327Z,2.10
2023-01-02T12:49:04.089Z,2.28
2023-01-02T12:51:40.300Z,2.33
2023-01-02T12:54:18.633Z,2.88
2023-01-02T12:57:02.600Z,1.45
2023-01-02T12:59:48.779Z,1.60
2023-01-02T13:02:33.047Z,2.28
2023-01-02T13:05:07.525Z,1.52
2023-01-02T13:07:38.285Z,1.40
2023-01-02T13:10:06.676Z,2.00
2023-01-02T13:12:35.723Z,1.90
2023-01-02T13:15:08.218Z,1.60
2023-01-02T13:17:36.708Z,2.20
2023-01-02T13:20:16.445Z,1.10
2023-01-02T13:22:51.672Z,1.40
2023-01-02T13:25:22.803Z,2.17
2023-01-02T13:27:50.757Z,1.85
2023-01-02T13:30:37.567Z,1.13
2023-01-02T13:33:06.252Z,1.60
2023-01-02T13:35:35.873Z,1.60
2023-01-02T13:38:05.231Z,1.85
2023-01-02T13:40:33.472Z,1.63
2023-01-02T13:43:03.584Z,1.52
2023-01-02T13:45:36.225Z,1.40
2023-01-02T13:48:05.285Z,1.73
2023-01-02T13:50:36.299Z,1.50
2023-01-02T13:53:06.455Z,1.70
2023-01-02T13:55:35.222Z,1.50
2023-01-02T13:58:20.416Z,1.63
2023-01-02T14:00:55.249Z,15.40
2023-01-02T14:03:23.547Z,4.63
2023-01-02T14:05:57.186Z,3.28
2023-01-02T14:08:24.561Z,3.42
2023-01-02T14:10:53.031Z,1.80
2023-01-02T14:13:23.922Z,2.50
2023-01-02T14:16:14.113Z,2.60
2023-01-02T14:18:46.359Z,2.50
2023-01-02T14:21:15.226Z,2.50
2023-01-02T14:24:16.065Z,2.70
2023-01-02T14:26:34.497Z,2.65
2023-01-02T14:29:08.099Z,3.78
2023-01-02T14:31:35.652Z,3.00
2023-01-02T14:34:03.072Z,3.10
2023-01-02T14:36:35.884Z,3.72
2023-01-02T14:39:03.413Z,3.45
2023-01-02T14:42:01.313Z,3.72
2023-01-02T14:44:28.856Z,3.00
2023-01-02T14:46:56.845Z,4.57
2023-01-02T14:49:27.156Z,4.80
2023-01-02T14:52:01.276Z,3.42
2023-01-02T14:54:34.200Z,3.47
2023-01-02T14:57:04.239Z,3.25
2023-01-02T14:59:38.108Z,4.40
2023-01-02T15:02:09.504Z,3.97
2023-01-02T15:04:48.364Z,3.78
2023-01-02T15:07:27.995Z,4.28
2023-01-02T15:09:57.643Z,2.83
2023-01-02T15:12:45.228Z,3.95
2023-01-02T15:15:13.772Z,3.90
2023-01-02T15:17:41.471Z,3.65
2023-01-02T15:20:09.749Z,3.40
2023-01-02T15:22:37.996Z,3.22
2023-01-02T15:25:05.417Z,2.95
2023-01-02T15:27:33.631Z,3.13
2023-01-02T15:30:02.459Z,3.88
2023-01-02T15:32:32.277Z,3.30
2023-01-02T15:35:14.099Z,3.80
2023-01-02T15:37:45.062Z,4.32
2023-01-02T15:40:21.751Z,6.85
2023-01-02T15:43:08.199Z,6.18
2023-01-02T15:45:36.023Z,6.30
2023-01-02T15:48:03.602Z,6.25
2023-01-02T15:50:31.481Z,13.10
2023-01-02T15:53:02.920Z,19.63
2023-01-02T15:55:37.525Z,17.33
2023-01-02T15:58:21.713Z,7.18
2023-01-02T16:00:51.241Z,11.52
2023-01-02T16:04:02.675Z,3.55
2023-01-02T16:06:25.074Z,3.15
2023-01-02T16:08:58.009Z,3.15
2023-01-02T16:11:25.491Z,3.50
2023-01-02T16:14:23.851Z,3.83
2023-01-02T16:17:05.128Z,3.85
2023-01-02T16:19:34.335Z,2.47
2023-01-02T16:22:03.959Z,3.42
2023-01-02T16:24:32.370Z,4.03
2023-01-02T16:26:59.665Z,3.20
2023-01-02T16:29:27.024Z,3.30
2023-01-02T16:32:03.390Z,3.28
2023-01-02T16:34:32.376Z,4.03
2023-01-02T16:37:10.184Z,3.38
2023-01-02T16:39:45.608Z,4.50
2023-01-02T16:42:31.989Z,5.10
2023-01-02T16:44:59.285Z,3.30
2023-01-02T16:47:29.836Z,4.13
2023-01-02T16:49:57.164Z,6.88
2023-01-02T16:52:24.403Z,5.72
2023-01-02T16:54:54.220Z,5.20
2023-01-02T16:57:23.332Z,4.22
2023-01-02T16:59:50.688Z,4.03
2023-01-02T17:02:18.012Z,4.88
2023-01-02T17:04:46.154Z,5.50
2023-01-02T17:07:20.110Z,5.20
2023-01-02T17:09:49.412Z,4.65
2023-01-02T17:12:16.679Z,4.25
2023-01-02T17:14:43.948Z,4.68
2023-01-02T17:17:11.185Z,4.80
2023-01-02T17:19:38.560Z,4.25
2023-01-02T17:22:05.893Z,5.75
2023-01-02T17:24:33.252Z,5.38
2023-01-02T17:27:00.590Z,5.70
2023-01-02T17:29:30.694Z,6.05
2023-01-02T17:31:58.127Z,5.28
2023-01-02T17:34:25.517Z,4.93
2023-01-02T17:36:53.150Z,4.40
2023-01-02T17:39:20.386Z,4.55
2023-01-02T17:41:49.397Z,4.72
2023-01-02T17:44:16.800Z,5.18
2023-01-02T17:47:23.203Z,5.03
2023-01-02T17:49:31.487Z,6.03
2023-01-02T17:51:59.527Z,4.88
2023-01-02T17:54:27.233Z,5.97
2023-01-02T17:56:54.546Z,5.35
2023-01-02T17:59:21.979Z,5.80
2023-01-02T18:01:49.965Z,6.55
2023-01-02T18:04:17.703Z,6.95
2023-01-02T18:06:45.059Z,6.25
2023-01-02T18:09:12.691Z,8.23
2023-01-02T18:11:40.125Z,7.38
2023-01-02T18:14:18.899Z,7.78
2023-01-02T18:16:46.787Z,7.55
2023-01-02T18:19:15.482Z,10.13
2023-01-02T18:21:43.894Z,8.90
2023-01-02T18:24:15.488Z,8.87
2023-01-02T18:26:42.948Z,8.65
2023-01-02T18:29:19.161Z,9.80
2023-01-02T18:31:47.215Z,9.15
2023-01-02T18:34:46.374Z,10.52
2023-01-02T18:37:18.175Z,14.55
2023-01-02T18:39:46.133Z,16.00
2023-01-02T18:42:19.909Z,13.38
2023-01-02T18:44:48.519Z,11.57
2023-01-02T18:47:28.427Z,11.13
2023-01-02T18:49:58.376Z,11.88
2023-01-02T18:52:30.329Z,10.48
2023-01-02T18:55:01.838Z,11.13
2023-01-02T18:57:32.065Z,11.18
2023-01-02T19:00:02.045Z,11.43
2023-01-02T19:02:44.807Z,12.20
2023-01-02T19:05:20.362Z,10.07
2023-01-02T19:07:48.040Z,10.05
2023-01-02T19:10:15.416Z,10.43
2023-01-02T19:13:08.093Z,11.00
2023-01-02T19:15:53.107Z,10.73
2023-01-02T19:18:23.758Z,10.38
2023-01-02T19:20:57.681Z,12.02
2023-01-02T19:23:44.648Z,12.40
2023-01-02T19:26:20.379Z,10.15
2023-01-02T19:28:52.865Z,11.55
2023-01-02T19:31:20.288Z,11.23
2023-01-02T19:33:52.600Z,10.20
2023-01-02T19:36:23.591Z,10.15
2023-01-02T19:38:51.871Z,9.80
2023-01-02T19:41:39.139Z,9.48
2023-01-02T19:44:06.456Z,10.05
2023-01-02T19:46:33.830Z,10.43
2023-01-02T19:49:01.185Z,9.95
2023-01-02T19:51:32.103Z,10.10
2023-01-02T19:54:04.054Z,9.48
2023-01-02T19:56:31.940Z,9.38
2023-01-02T19:59:00.655Z,9.00
2023-01-02T20:01:28.137Z,10.88
2023-01-02T20:03:55.461Z,10.10
2023-01-02T20:06:22.719Z,10.38
2023-01-02T20:08:51.208Z,10.43
2023-01-02T20:11:37.328Z,9.90
2023-01-02T20:14:04.599Z,9.70
2023-01-02T20:16:32.110Z,10.88
2023-01-02T20:18:59.352Z,10.80
2023-01-02T20:21:28.351Z,10.35
2023-01-02T20:23:56.823Z,10.05
2023-01-02T20:26:24.168Z,9.48
2023-01-02T20:28:51.409Z,11.25
2023-01-02T20:31:18.735Z,10.88
2023-01-02T20:33:46.032Z,10.85
2023-01-02T20:36:13.987Z,11.27
2023-01-02T20:38:41.476Z,13.13
2023-01-02T20:41:08.888Z,12.25
2023-01-02T20:43:36.222Z,13.75
2023-01-02T20:46:03.668Z,15.93
2023-01-02T20:48:32.431Z,15.10
2023-01-02T20:50:59.774Z,12.52
2023-01-02T20:53:27.138Z,13.95
2023-01-02T20:55:54.511Z,12.75
2023-01-02T20:58:21.908Z,12.45
2023-01-02T21:00:49.303Z,13.40
2023-01-02T21:03:16.747Z,13.32
2023-01-02T21:05:44.295Z,11.75
2023-01-02T21:08:11.604Z,12.98
2023-01-02T21:10:38.836Z,12.20
2023-01-02T21:13:10.828Z,11.73
2023-01-02T21:15:42.087Z,11.98
2023-01-02T21:18:10.114Z,13.57
2023-01-02T21:20:42.610Z,14.52
2023-01-02T21:23:13.216Z,16.23
2023-01-02T21:25:40.463Z,14.88
2023-01-02T21:28:08.086Z,14.02
2023-01-02T21:30:35.599Z,14.25
2023-01-02T21:33:02.863Z,13.80
2023-01-02T21:35:30.319Z,12.93
2023-01-02T21:37:57.591Z,12.90
2023-01-02T21:40:24.864Z,11.70
2023-01-02T21:42:52.344Z,13.40
2023-01-02T21:45:19.588Z,12.02
2023-01-02T21:47:46.912Z,13.38
2023-01-02T21:50:14.184Z,13.88
2023-01-02T21:52:41.594Z,12.95
2023-01-02T21:55:09.273Z,12.35
2023-01-02T21:58:11.575Z,13.20
2023-01-02T22:00:25.513Z,13.27
2023-01-02T22:02:53.237Z,12.60
2023-01-02T22:05:20.908Z,11.38
2023-01-02T22:07:48.241Z,11.82
2023-01-02T22:10:16.310Z,11.85
2023-01-02T22:12:43.859Z,13.75
2023-01-02T22:15:12.302Z,11.10
2023-01-02T22:17:39.735Z,12.63
2023-01-02T22:20:07.240Z,11.93
2023-01-02T22:22:34.609Z,10.55
2023-01-02T22:25:01.970Z,11.23
2023-01-02T22:27:29.396Z,11.25
2023-01-02T22:32:44.903Z,11.82
2023-01-02T22:35:13.342Z,10.73
2023-01-02T22:37:40.633Z,10.52
2023-01-02T22:40:08.109Z,10.18
2023-01-02T22:43:02.045Z,10.82
2023-01-02T22:45:31.619Z,11.85
2023-01-02T22:48:00.465Z,10.45
2023-01-02T22:50:31.690Z,11.65
2023-01-02T22:52:59.424Z,11.25
2023-01-02T22:55:27.811Z,10.90
2023-01-02T22:57:55.042Z,11.60
2023-01-02T23:00:23.326Z,10.98
2023-01-02T23:02:51.215Z,12.00
2023-01-02T23:05:19.217Z,11.70
2023-01-02T23:07:46.972Z,12.63
2023-01-02T23:10:14.384Z,11.15
2023-01-02T23:12:41.840Z,11.77
2023-01-02T23:15:11.646Z,10.93
2023-01-02T23:17:58.107Z,12.35
2023-01-02T23:20:26.164Z,12.52
2023-01-02T23:22:53.410Z,10.95
2023-01-02T23:25:20.682Z,11.60
2023-01-02T23:27:48.071Z,11.85
2023-01-02T23:30:15.342Z,11.20
2023-01-02T23:32:42.692Z,10.85
2023-01-02T23:35:10.468Z,12.82
2023-01-02T23:37:37.694Z,12.07
2023-01-02T23:40:05.135Z,12.68
2023-01-02T23:42:32.406Z,10.95
2023-01-02T23:44:59.833Z,12.40
2023-01-02T23:47:27.300Z,11.35
2023-01-02T23:49:54.614Z,9.75
2023-01-02T23:52:21.886Z,10.65
2023-01-02T23:54:49.171Z,10.85
2023-01-02T23:57:16.398Z,11.27
2023-01-02T23:59:43.664Z,9.80
